Flight Number: EUR1561 Duration: 6:00
Departure: Jeddah King Abdul Aziz (OEJN) at 00:00 Distance: 2544 Nm
Arrival: Gatwick Airport (EGKK) at 06:00 Equipment: B777

Weather Information
Jeddah King Abdul Aziz International Airport , Saudi Arabia (OEJN) 21-42N 039-11E 17M Nov 19, 2018 - 05:00 PM EST / 2018.11.19 2200 UTC
Wind: from the NNE (020 degrees) at 6 MPH (5 KT):0
Visibility: greater than 7 mile(s):0 Temperature: 80 F (27 C) Dew Point: 69 F (21 C) Relative Humidity: 69% Pressure (altimeter): 29.94 in. Hg (1014 hPa)
ob: OEJN 192200Z 02005KT CAVOK 27/21 Q1014 NOSIG cycle: 22
Sunrise: 03:40 Sunset: 14:37 (UTC)

London / Gatwick Airport, United Kingdom (EGKK) 51-09N 000-11W 0M Nov 19, 2018 - 04:50 PM EST / 2018.11.19 2150 UTC
Wind: from the NNE (030 degrees) at 10 MPH (9 KT) (direction variable):0
Visibility: greater than 7 mile(s):0
Sky conditions: mostly clear Temperature: 39 F (4 C) Dew Point: 37 F (3 C) Relative Humidity: 93% Pressure (altimeter): 29.94 in. Hg (1014 hPa)
ob: EGKK 192150Z 03009KT 360V070 9999 FEW037 04/03 Q1014 cycle: 22
Sunrise: 07:29 Sunset: 16:03 (UTC)

TAF:2018/11/19 18:09 TAF EGKK 191659Z 1918/2024 05013KT 9999 BKN020 TEMPO 1918/2021 6000 SHRA BKN014 PROB30 TEMPO 1920/2016 04016G26KT 4000 +SHRA BKN008 BECMG 2021/2024 07003KT TEMPO 2021/2024 5000 BR BKN007

Previous Pireps for this route
Date Aircraft Flight time Fuel used Landing rate On time
2015-04-03B757-20007.2210Charter
2016-01-26B7775.32155672-391Yes
2016-05-15B7776.091367440Charter
(pireps marked green are flown by you)

Route map